createdAt,value
2023-01-15T00:02:42.770Z,99205.47
2023-01-15T00:05:44.575Z,99202.97
2023-01-15T00:08:46.760Z,99208.13
2023-01-15T00:11:48.513Z,99205.47
2023-01-15T00:14:50.429Z,99205.59
2023-01-15T00:17:51.950Z,99205.91
2023-01-15T00:20:59.955Z,99204.25
2023-01-15T00:24:19.918Z,99188.50
2023-01-15T00:27:39.357Z,99203.59
2023-01-15T00:30:42.631Z,99197.72
2023-01-15T00:33:44.162Z,99192.53
2023-01-15T00:36:45.785Z,99201.44
2023-01-15T00:39:47.484Z,99198.88
2023-01-15T00:42:52.977Z,99195.31
2023-01-15T00:45:56.292Z,99199.72
2023-01-15T00:48:57.896Z,99199.72
2023-01-15T00:51:59.436Z,99207.78
2023-01-15T00:55:01.020Z,99210.44
2023-01-15T00:58:02.631Z,99222.78
2023-01-15T01:01:04.557Z,99207.06
2023-01-15T01:04:06.470Z,99216.06
2023-01-15T01:07:08.023Z,99213.50
2023-01-15T01:10:10.123Z,99224.19
2023-01-15T01:13:12.335Z,99221.53
2023-01-15T01:16:35.986Z,99224.28
2023-01-15T01:19:37.620Z,99224.41
2023-01-15T01:22:40.290Z,99221.88
2023-01-15T01:25:41.863Z,99227.16
2023-01-15T01:28:43.878Z,99239.59
2023-01-15T01:31:46.035Z,99229.03
2023-01-15T01:34:47.659Z,99230.75
2023-01-15T01:37:51.080Z,99233.38
2023-01-15T01:40:52.797Z,99232.53
2023-01-15T01:44:06.035Z,99234.31
2023-01-15T01:47:11.351Z,99229.16
2023-01-15T01:50:14.394Z,99230.97
2023-01-15T01:53:22.904Z,99226.75
2023-01-15T01:56:24.860Z,99218.94
2023-01-15T01:59:27.149Z,99220.84
2023-01-15T02:02:29.073Z,99212.09
2023-01-15T02:05:37.943Z,99214.72
2023-01-15T02:08:40.089Z,99222.78
2023-01-15T02:11:41.703Z,99234.28
2023-01-15T02:15:01.195Z,99230.78
2023-01-15T02:18:34.709Z,99233.41
2023-01-15T02:21:52.389Z,99227.41
2023-01-15T02:25:12.034Z,99230.19
2023-01-15T02:28:24.221Z,99237.25
2023-01-15T02:31:38.105Z,99239.88
2023-01-15T02:34:47.598Z,99235.47
2023-01-15T02:37:55.298Z,99236.28
2023-01-15T02:41:00.299Z,99240.75
2023-01-15T02:44:04.110Z,99230.19
2023-01-15T02:47:07.272Z,99231.13
2023-01-15T02:50:14.679Z,99204.72
2023-01-15T02:53:23.811Z,99225.72
2023-01-15T02:56:29.863Z,99216.22
2023-01-15T02:59:38.809Z,99209.25
2023-01-15T03:02:46.534Z,99205.66
2023-01-15T03:06:10.921Z,99192.56
2023-01-15T03:09:15.305Z,99197.00
2023-01-15T03:13:01.219Z,99181.16
2023-01-15T03:16:33.413Z,99195.44
2023-01-15T03:19:44.577Z,99195.56
2023-01-15T03:22:52.080Z,99192.19
2023-01-15T03:25:53.672Z,99196.41
2023-01-15T03:28:55.979Z,99207.78
2023-01-15T03:31:59.831Z,99199.84
2023-01-15T03:35:04.013Z,99197.34
2023-01-15T03:38:05.767Z,99202.75
2023-01-15T03:41:19.223Z,99194.06
2023-01-15T03:44:38.574Z,99197.56
2023-01-15T03:47:52.315Z,99207.25
2023-01-15T03:51:01.337Z,99193.25
2023-01-15T03:54:07.270Z,99184.34
2023-01-15T03:57:15.483Z,99193.13
2023-01-15T04:00:51.348Z,99183.41
2023-01-15T04:03:54.708Z,99185.19
2023-01-15T04:06:58.296Z,99190.59
2023-01-15T04:10:00.157Z,99171.16
2023-01-15T04:13:01.804Z,99166.72
2023-01-15T04:16:03.596Z,99169.38
2023-01-15T04:19:05.190Z,99165.88
2023-01-15T04:22:06.781Z,99166.84
2023-01-15T04:25:08.990Z,99168.63
2023-01-15T04:28:10.638Z,99158.06
2023-01-15T04:31:12.368Z,99167.78
2023-01-15T04:34:14.236Z,99182.91
2023-01-15T04:37:17.191Z,99164.50
2023-01-15T04:40:37.579Z,99159.34
2023-01-15T04:43:57.500Z,99156.84
2023-01-15T04:47:00.146Z,99139.19
2023-01-15T04:50:01.804Z,99138.38
2023-01-15T04:53:03.366Z,99147.22
2023-01-15T04:56:05.838Z,99141.94
2023-01-15T04:59:08.285Z,99135.72
2023-01-15T05:02:09.961Z,99132.22
2023-01-15T05:05:11.614Z,99134.03
2023-01-15T05:08:13.227Z,99131.38
2023-01-15T05:11:15.070Z,99131.38
2023-01-15T05:14:16.665Z,99132.22
2023-01-15T05:17:18.866Z,99127.03
2023-01-15T05:20:20.459Z,99128.88
2023-01-15T05:23:21.982Z,99146.50
2023-01-15T05:26:25.042Z,99140.50
2023-01-15T05:29:26.659Z,99141.22
2023-01-15T05:32:29.928Z,99135.94
2023-01-15T05:35:31.709Z,99142.88
2023-01-15T05:38:33.490Z,99151.56
2023-01-15T05:41:51.232Z,99148.91
2023-01-15T05:44:53.015Z,99141.00
2023-01-15T05:47:54.619Z,99154.13
2023-01-15T05:50:56.168Z,99155.78
2023-01-15T05:53:58.266Z,99138.28
2023-01-15T05:57:01.422Z,99156.75
2023-01-15T06:00:04.597Z,99149.06
2023-01-15T06:03:06.127Z,99157.19
2023-01-15T06:06:13.249Z,99154.56
2023-01-15T06:09:15.654Z,99159.09
2023-01-15T06:12:17.215Z,99160.91
2023-01-15T06:15:18.781Z,99149.59
2023-01-15T06:18:20.343Z,99146.13
2023-01-15T06:21:21.882Z,99147.06
2023-01-15T06:24:23.605Z,99148.03
2023-01-15T06:27:25.170Z,99137.69
2023-01-15T06:30:26.728Z,99136.97
2023-01-15T06:33:28.433Z,99124.72
2023-01-15T06:36:30.065Z,99127.56
2023-01-15T06:39:31.606Z,99130.31
2023-01-15T06:42:51.716Z,99132.22
2023-01-15T06:46:11.774Z,99129.69
2023-01-15T06:49:13.429Z,99140.25
2023-01-15T06:52:15.251Z,99143.72
2023-01-15T06:55:18.527Z,99146.28
2023-01-15T06:58:22.319Z,99147.22
2023-01-15T07:01:24.022Z,99148.16
2023-01-15T07:04:25.657Z,99137.72
2023-01-15T07:07:28.573Z,99140.50
2023-01-15T07:10:30.191Z,99135.41
2023-01-15T07:13:31.807Z,99127.72
2023-01-15T07:16:34.121Z,99136.69
2023-01-15T07:19:36.065Z,99142.03
2023-01-15T07:22:37.636Z,99151.00
2023-01-15T07:25:39.185Z,99128.31
2023-01-15T07:28:40.777Z,99122.75
2023-01-15T07:31:42.408Z,99137.22
2023-01-15T07:34:44.452Z,99141.97
2023-01-15T07:37:51.696Z,99130.91
2023-01-15T07:41:14.999Z,99138.44
2023-01-15T07:44:35.331Z,99134.53
2023-01-15T07:47:55.473Z,99124.53
2023-01-15T07:50:57.050Z,99129.16
2023-01-15T07:53:58.641Z,99131.19
2023-01-15T07:57:00.570Z,99125.41
2023-01-15T08:00:02.149Z,99124.75
2023-01-15T08:03:03.912Z,99108.94
2023-01-15T08:06:05.654Z,99103.78
2023-01-15T08:09:07.347Z,99116.97
2023-01-15T08:12:29.961Z,99127.38
2023-01-15T08:19:53.840Z,99125.94
2023-01-15T08:22:55.604Z,99118.22
2023-01-15T08:26:01.118Z,99123.50
2023-01-15T08:29:02.728Z,99133.06
2023-01-15T08:32:04.501Z,99127.06
2023-01-15T08:35:06.711Z,99127.06
2023-01-15T08:38:09.008Z,99117.50
2023-01-15T08:41:11.122Z,99113.88
2023-01-15T08:44:12.705Z,99101.56
2023-01-15T08:47:16.025Z,99117.06
2023-01-15T08:50:17.685Z,99104.72
2023-01-15T08:53:20.431Z,99116.84
2023-01-15T08:56:22.000Z,99115.91
2023-01-15T08:59:23.535Z,99112.09
2023-01-15T09:02:25.143Z,99127.16
2023-01-15T09:05:28.179Z,99130.34
2023-01-15T09:08:30.235Z,99137.22
2023-01-15T09:11:31.812Z,99139.97
2023-01-15T09:14:56.891Z,99138.28
2023-01-15T09:17:56.582Z,99134.91
2023-01-15T09:20:58.259Z,99131.41
2023-01-15T09:24:00.138Z,99119.19
2023-01-15T09:27:01.710Z,99121.00
2023-01-15T09:30:04.512Z,99121.94
2023-01-15T09:33:06.064Z,99117.50
2023-01-15T09:36:15.870Z,99121.00
2023-01-15T09:39:17.453Z,99124.34
2023-01-15T09:42:38.439Z,99131.31
2023-01-15T09:45:55.161Z,99123.41
2023-01-15T09:49:10.773Z,99131.84
2023-01-15T09:52:38.397Z,99130.66
2023-01-15T09:55:47.148Z,99121.69
2023-01-15T09:58:50.665Z,99120.50
2023-01-15T10:01:53.674Z,99128.81
2023-01-15T10:05:04.778Z,99123.22
2023-01-15T10:08:17.718Z,99123.00
2023-01-15T10:12:10.478Z,99125.50
2023-01-15T10:15:27.299Z,99117.81
2023-01-15T10:18:29.496Z,99111.81
2023-01-15T10:21:44.720Z,99117.19
2023-01-15T10:24:56.599Z,99116.56
2023-01-15T10:28:05.683Z,99109.59
2023-01-15T10:31:20.117Z,99113.19
2023-01-15T10:34:32.471Z,99113.19
2023-01-15T10:37:43.191Z,99126.41
2023-01-15T10:40:53.529Z,99123.03
2023-01-15T10:44:44.439Z,99126.75
2023-01-15T10:47:52.693Z,99116.28
2023-01-15T10:50:54.457Z,99113.84
2023-01-15T10:54:03.073Z,99121.16
2023-01-15T10:57:12.256Z,99129.63
2023-01-15T11:00:14.369Z,99122.25
2023-01-15T11:03:22.461Z,99113.94
2023-01-15T11:06:25.846Z,99114.59
2023-01-15T11:09:34.885Z,99097.72
2023-01-15T11:12:55.676Z,99096.69
2023-01-15T11:16:16.188Z,99084.56
2023-01-15T11:19:37.710Z,99109.13
2023-01-15T11:22:39.574Z,99101.97
2023-01-15T11:25:53.065Z,99097.44
2023-01-15T11:28:56.174Z,99095.63
2023-01-15T11:31:57.771Z,99085.06
2023-01-15T11:35:19.673Z,99091.09
2023-01-15T11:38:23.148Z,99120.72
2023-01-15T11:41:53.435Z,99107.22
2023-01-15T11:45:15.931Z,99095.50
2023-01-15T11:48:45.322Z,99098.16
2023-01-15T11:51:49.186Z,99098.50
2023-01-15T11:54:55.425Z,99109.59
2023-01-15T11:57:58.486Z,99112.66
2023-01-15T12:01:01.233Z,99111.41
2023-01-15T12:04:23.557Z,99104.03
2023-01-15T12:07:26.917Z,99086.75
2023-01-15T12:11:17.224Z,99100.16
2023-01-15T12:14:36.852Z,99078.66
2023-01-15T12:17:53.719Z,99073.47
2023-01-15T12:21:05.734Z,99061.13
2023-01-15T12:24:42.851Z,99069.16
2023-01-15T12:28:03.516Z,99052.28
2023-01-15T12:31:08.794Z,99051.09
2023-01-15T12:34:27.415Z,99057.84
2023-01-15T12:37:36.994Z,99048.97
2023-01-15T12:40:45.176Z,99049.81
2023-01-15T12:44:15.339Z,99067.94
2023-01-15T12:47:22.041Z,99058.84
2023-01-15T12:50:52.168Z,99041.75
2023-01-15T12:54:00.567Z,98996.56
2023-01-15T12:57:35.510Z,99020.09
2023-01-15T13:00:42.884Z,99029.34
2023-01-15T13:04:30.332Z,99011.16
2023-01-15T13:07:41.130Z,99011.41
2023-01-15T13:10:43.153Z,99003.06
2023-01-15T13:13:58.003Z,98996.38
2023-01-15T13:17:22.258Z,99007.56
2023-01-15T13:20:47.320Z,99019.78
2023-01-15T13:24:07.875Z,99018.97
2023-01-15T13:27:16.685Z,99019.78
2023-01-15T13:30:39.849Z,99010.06
2023-01-15T13:33:46.589Z,99010.06
2023-01-15T13:36:49.475Z,99012.63
2023-01-15T13:39:56.169Z,99011.34
2023-01-15T13:42:57.820Z,99018.31
2023-01-15T13:46:00.264Z,98999.97
2023-01-15T13:49:01.964Z,99026.47
2023-01-15T13:52:06.327Z,99032.47
2023-01-15T13:55:40.399Z,99029.84
2023-01-15T13:59:01.360Z,99018.31
2023-01-15T14:02:21.984Z,99035.88
2023-01-15T14:05:23.522Z,99023.47
2023-01-15T14:08:52.251Z,99027.19
2023-01-15T14:11:56.624Z,98993.09
2023-01-15T14:14:58.193Z,99024.06
2023-01-15T14:18:26.916Z,99043.63
2023-01-15T14:21:49.122Z,99030.66
2023-01-15T14:25:32.547Z,99044.94
2023-01-15T14:28:35.414Z,99037.25
2023-01-15T14:32:05.472Z,99063.88
2023-01-15T14:35:14.354Z,99076.56
2023-01-15T14:38:19.196Z,99083.03
2023-01-15T14:41:30.017Z,99093.09
2023-01-15T14:44:34.032Z,99104.94
2023-01-15T14:47:44.236Z,99126.50
2023-01-15T14:50:47.516Z,99136.66
2023-01-15T14:53:58.667Z,99157.19
2023-01-15T14:57:02.013Z,99170.06
2023-01-15T15:00:06.354Z,99189.16
2023-01-15T15:03:22.949Z,99182.22
2023-01-15T15:06:26.980Z,99175.19
2023-01-15T15:09:31.356Z,99188.16
2023-01-15T15:12:36.275Z,99186.97
2023-01-15T15:15:50.521Z,99196.28
2023-01-15T15:19:14.403Z,99190.56
2023-01-15T15:22:19.662Z,99204.97
2023-01-15T15:25:27.487Z,99217.63
2023-01-15T15:28:30.320Z,99209.25
2023-01-15T15:31:37.547Z,99194.72
2023-01-15T15:34:43.517Z,99204.81
2023-01-15T15:37:46.371Z,99194.69
2023-01-15T15:41:00.906Z,99211.81
2023-01-15T15:44:21.693Z,99195.25
2023-01-15T15:47:43.585Z,99202.41
2023-01-15T15:50:48.130Z,99228.25
2023-01-15T15:53:49.690Z,99221.47
2023-01-15T15:57:13.215Z,99212.84
2023-01-15T16:00:22.842Z,99224.41
2023-01-15T16:03:26.946Z,99224.00
2023-01-15T16:06:28.605Z,99227.66
2023-01-15T16:09:30.299Z,99223.44
2023-01-15T16:12:36.662Z,99233.13
2023-01-15T16:15:40.983Z,99243.75
2023-01-15T16:18:46.575Z,99243.84
2023-01-15T16:21:49.022Z,99240.38
2023-01-15T16:24:55.627Z,99239.63
2023-01-15T16:27:57.588Z,99246.91
2023-01-15T16:31:02.627Z,99259.22
2023-01-15T16:34:05.449Z,99252.19
2023-01-15T16:37:25.371Z,99258.25
2023-01-15T16:40:39.639Z,99273.88
2023-01-15T16:43:53.570Z,99274.72
2023-01-15T16:46:58.687Z,99271.06
2023-01-15T16:50:22.212Z,99277.06
2023-01-15T16:53:35.880Z,99284.97
2023-01-15T16:56:37.592Z,99284.03
2023-01-15T16:59:45.180Z,99284.78
2023-01-15T17:02:46.913Z,99285.50
2023-01-15T17:05:52.729Z,99282.78
2023-01-15T17:08:56.453Z,99288.88
2023-01-15T17:11:59.009Z,99293.13
2023-01-15T17:15:16.659Z,99299.97
2023-01-15T17:18:26.826Z,99303.34
2023-01-15T17:21:29.365Z,99306.75
2023-01-15T17:24:30.952Z,99312.03
2023-01-15T17:27:32.533Z,99312.84
2023-01-15T17:30:34.766Z,99307.69
2023-01-15T17:33:36.327Z,99309.38
2023-01-15T17:36:37.941Z,99315.59
2023-01-15T17:39:39.491Z,99312.03
2023-01-15T17:42:41.111Z,99326.00
2023-01-15T17:45:43.163Z,99327.72
2023-01-15T17:48:44.693Z,99336.38
2023-01-15T17:51:46.290Z,99339.84
2023-01-15T17:55:06.202Z,99347.75
2023-01-15T17:58:33.592Z,99343.34
2023-01-15T18:02:03.794Z,99353.78
2023-01-15T18:05:25.103Z,99361.69
2023-01-15T18:08:26.704Z,99360.75
2023-01-15T18:11:28.351Z,99364.22
2023-01-15T18:14:29.973Z,99371.38
2023-01-15T18:17:31.865Z,99368.84
2023-01-15T18:20:33.911Z,99380.31
2023-01-15T18:23:39.499Z,99374.22
2023-01-15T18:26:41.776Z,99385.59
2023-01-15T18:29:43.771Z,99380.31
2023-01-15T18:32:46.068Z,99393.56
2023-01-15T18:35:47.652Z,99384.78
2023-01-15T18:38:49.297Z,99390.06
2023-01-15T18:41:50.826Z,99400.59
2023-01-15T18:45:11.188Z,99399.88
2023-01-15T18:48:12.800Z,99389.50
2023-01-15T18:51:14.344Z,99403.66
2023-01-15T18:54:15.889Z,99398.38
2023-01-15T18:57:17.511Z,99404.41
2023-01-15T19:00:21.778Z,99419.28
2023-01-15T19:03:23.431Z,99401.00
2023-01-15T19:06:25.081Z,99402.91
2023-01-15T19:09:26.946Z,99405.72
2023-01-15T19:12:28.553Z,99410.25
2023-01-15T19:15:49.007Z,99414.78
2023-01-15T19:18:53.785Z,99425.41
2023-01-15T19:22:14.470Z,99426.38
2023-01-15T19:25:16.707Z,99427.41
2023-01-15T19:28:20.814Z,99422.22
2023-01-15T19:31:39.133Z,99430.97
2023-01-15T19:34:40.893Z,99430.84
2023-01-15T19:37:42.500Z,99440.38
2023-01-15T19:40:44.048Z,99440.38
2023-01-15T19:44:04.136Z,99434.16
2023-01-15T19:47:30.585Z,99440.19
2023-01-15T19:50:41.946Z,99443.66
2023-01-15T19:53:43.553Z,99447.03
2023-01-15T19:56:45.131Z,99446.97
2023-01-15T19:59:49.930Z,99449.59
2023-01-15T20:02:51.802Z,99443.47
2023-01-15T20:05:53.476Z,99447.78
2023-01-15T20:08:55.280Z,99444.97
2023-01-15T20:12:15.443Z,99444.78
2023-01-15T20:15:17.239Z,99453.63
2023-01-15T20:18:18.969Z,99447.59
2023-01-15T20:21:20.556Z,99452.75
2023-01-15T20:24:23.093Z,99454.47
2023-01-15T20:27:24.894Z,99460.47
2023-01-15T20:30:27.040Z,99449.00
2023-01-15T20:33:28.661Z,99456.06
2023-01-15T20:36:34.252Z,99456.16
2023-01-15T20:39:36.122Z,99457.09
2023-01-15T20:42:56.337Z,99462.47
2023-01-15T20:46:12.663Z,99464.38
2023-01-15T20:49:40.318Z,99472.34
2023-01-15T20:52:49.307Z,99462.00
2023-01-15T20:55:57.231Z,99483.09
2023-01-15T20:58:59.144Z,99482.34
2023-01-15T21:02:00.761Z,99484.22
2023-01-15T21:05:02.482Z,99482.44
2023-01-15T21:08:04.200Z,99473.69
2023-01-15T21:11:05.877Z,99484.22
2023-01-15T21:14:07.433Z,99478.03
2023-01-15T21:17:09.624Z,99488.56
2023-01-15T21:20:13.715Z,99476.44
2023-01-15T21:23:15.267Z,99477.34
2023-01-15T21:26:16.990Z,99488.00
2023-01-15T21:29:18.818Z,99484.41
2023-01-15T21:32:20.809Z,99478.28
2023-01-15T21:35:22.408Z,99482.63
2023-01-15T21:38:24.024Z,99471.06
2023-01-15T21:41:44.849Z,99478.03
2023-01-15T21:44:46.449Z,99473.31
2023-01-15T21:47:48.019Z,99470.16
2023-01-15T21:50:49.903Z,99472.81
2023-01-15T21:53:51.437Z,99467.66
2023-01-15T21:56:54.271Z,99465.88
2023-01-15T21:59:56.084Z,99465.75
2023-01-15T22:02:58.489Z,99468.50
2023-01-15T22:06:05.021Z,99474.91
2023-01-15T22:09:06.651Z,99463.53
2023-01-15T22:12:08.288Z,99473.31
2023-01-15T22:15:11.526Z,99472.53
2023-01-15T22:18:13.106Z,99471.72
2023-01-15T22:21:15.546Z,99479.69
2023-01-15T22:24:18.799Z,99471.78
2023-01-15T22:27:20.822Z,99474.53
2023-01-15T22:30:22.400Z,99470.19
2023-01-15T22:33:23.960Z,99465.03
2023-01-15T22:36:27.127Z,99461.56
2023-01-15T22:39:29.362Z,99459.78
2023-01-15T22:42:32.948Z,99454.31
2023-01-15T22:45:34.666Z,99463.03
2023-01-15T22:48:36.266Z,99460.50
2023-01-15T22:51:37.803Z,99453.53
2023-01-15T22:54:39.437Z,99449.97
2023-01-15T22:57:40.944Z,99442.91
2023-01-15T23:00:42.500Z,99440.19
2023-01-15T23:03:44.039Z,99439.25
2023-01-15T23:06:46.190Z,99440.91
2023-01-15T23:09:47.750Z,99430.19
2023-01-15T23:12:49.295Z,99429.34
2023-01-15T23:15:58.303Z,99427.19
2023-01-15T23:18:59.959Z,99433.19
2023-01-15T23:22:01.565Z,99422.66
2023-01-15T23:25:03.476Z,99422.72
2023-01-15T23:28:05.244Z,99419.28
2023-01-15T23:31:06.985Z,99419.28
2023-01-15T23:34:10.073Z,99414.00
2023-01-15T23:37:11.685Z,99417.56
2023-01-15T23:40:13.364Z,99418.50
2023-01-15T23:43:35.284Z,99407.88
2023-01-15T23:46:37.225Z,99409.66
2023-01-15T23:49:38.906Z,99412.31
2023-01-15T23:52:40.434Z,99405.31
2023-01-15T23:55:42.027Z,99407.97
2023-01-15T23:58:45.148Z,99404.50
